Time;durP1;ratioP1;P1;durP2;ratioP2;P2;SDS_P1;SDS_P2;PMS_P1;PMS_P2;Temp;Humidity;BMP_temperature;BMP_pressure;BME280_temperature;BME280_humidity;BME280_pressure;Samples;Min_cycle;Max_cycle;Signal;HPM_P1;HPM_P2
2022/03/08 00:00:45;;;;;;;;;;;;;;;0.89;92.06;98720.84;1669773;84;24401;-83
2022/03/08 00:03:11;;;;;;;;;;;;;;;0.93;92.26;98716.84;1655883;84;20233;-83
2022/03/08 00:05:37;;;;;;;;;;;;;;;1.00;92.50;98719.67;1671827;85;20291;-83
2022/03/08 00:08:03;;;;;;;;;;;;;;;1.10;92.76;98719.81;1661157;84;21938;-83
2022/03/08 00:10:29;;;;;;;;;;;;;;;1.15;92.93;98715.38;1671357;84;26032;-83
2022/03/08 00:12:55;;;;;;;;;;;;;;;1.16;93.03;98716.23;1663086;85;24494;-83
2022/03/08 00:15:24;;;;;;;;;;;;;;;1.15;93.10;98719.25;1670573;85;20534;-83
2022/03/08 00:17:51;;;;;;;;;;;;;;;1.16;93.15;98714.50;1661589;85;25086;-83
2022/03/08 00:20:17;;;;;;;;;;;;;;;1.13;93.17;98712.02;1663500;84;22054;-83
2022/03/08 00:22:46;;;;;;;;;;;;;;;1.13;93.21;98712.02;1663820;84;26029;-83
2022/03/08 00:25:12;;;;;;;;;;;;;;;1.10;93.18;98716.39;1672594;85;24457;-83
2022/03/08 00:27:45;;;;;;;;;;;;;;;0.96;93.01;98714.20;1672021;85;20258;-83
2022/03/08 00:30:09;;;;;;;;;;;;;;;0.84;92.85;98719.68;1654923;85;25702;-83
2022/03/08 00:32:35;;;;;;;;;;;;;;;0.72;92.71;98712.27;1668773;84;22052;-83
2022/03/08 00:35:04;;;;;;;;;;;;;;;0.65;92.63;98710.31;1654350;85;26047;-83
2022/03/08 00:37:30;;;;;;;;;;;;;;;0.59;92.59;98717.34;1666028;85;24567;-84
2022/03/08 00:39:56;;;;;;;;;;;;;;;0.57;92.63;98721.23;1671442;85;20255;-84
2022/03/08 00:42:22;;;;;;;;;;;;;;;0.58;92.74;98717.78;1667371;85;25011;-84
2022/03/08 00:44:48;;;;;;;;;;;;;;;0.59;92.83;98714.77;1659516;84;21883;-84
2022/03/08 00:47:14;;;;;;;;;;;;;;;0.58;92.94;98716.50;1676039;84;26058;-85
2022/03/08 00:49:40;;;;;;;;;;;;;;;0.62;93.06;98718.54;1683629;83;24556;-85
2022/03/08 00:52:07;;;;;;;;;;;;;;;0.62;93.16;98724.54;1677758;84;20615;-85
2022/03/08 00:54:33;;;;;;;;;;;;;;;0.59;93.23;98728.94;1683215;84;24989;-85
2022/03/08 00:56:59;;;;;;;;;;;;;;;0.63;93.37;98721.09;1677201;84;23215;-85
2022/03/08 00:59:25;;;;;;;;;;;;;;;0.66;93.53;98722.72;1675902;84;21036;-85
2022/03/08 01:01:51;;;;;;;;;;;;;;;0.67;93.70;98723.13;1678264;84;24556;-85
2022/03/08 01:04:20;;;;;;;;;;;;;;;0.62;93.75;98727.55;1671879;84;20298;-85
2022/03/08 01:06:50;;;;;;;;;;;;;;;0.68;93.90;98723.54;1677675;84;25161;-85
2022/03/08 01:09:16;;;;;;;;;;;;;;;0.68;94.01;98719.23;1674563;84;22060;-85
2022/03/08 01:11:45;;;;;;;;;;;;;;;0.63;93.99;98720.23;1671956;83;27077;-85
2022/03/08 01:14:11;;;;;;;;;;;;;;;0.59;93.96;98722.50;1684104;84;24703;-85
2022/03/08 01:16:37;;;;;;;;;;;;;;;0.60;94.04;98725.01;1674939;83;20335;-86
2022/03/08 01:19:04;;;;;;;;;;;;;;;0.63;94.13;98722.38;1676443;83;20837;-84
2022/03/08 01:21:30;;;;;;;;;;;;;;;0.68;94.26;98720.52;1679828;84;21988;-85
2022/03/08 01:23:57;;;;;;;;;;;;;;;0.72;94.40;98721.28;1671855;84;26044;-85
2022/03/08 01:26:23;;;;;;;;;;;;;;;0.58;94.41;98702.34;1678729;84;24734;-84
2022/03/08 01:28:49;;;;;;;;;;;;;;;0.62;94.41;98724.98;1682413;83;20336;-84
2022/03/08 01:31:16;;;;;;;;;;;;;;;0.60;94.42;98725.48;1676370;84;24974;-85
2022/03/08 01:33:42;;;;;;;;;;;;;;;0.59;94.45;98725.92;1686795;84;21977;-84
2022/03/08 01:36:08;;;;;;;;;;;;;;;0.53;94.46;98719.63;1677733;84;25954;-84
2022/03/08 01:38:34;;;;;;;;;;;;;;;0.43;94.42;98722.47;1681189;84;24541;-84
2022/03/08 01:41:00;;;;;;;;;;;;;;;0.39;94.44;98724.27;1672768;84;20226;-84
2022/03/08 01:43:26;;;;;;;;;;;;;;;0.37;94.51;98726.05;1676989;84;20378;-86
2022/03/08 01:45:52;;;;;;;;;;;;;;;0.35;94.60;98724.78;1685595;84;22045;-85
2022/03/08 01:48:19;;;;;;;;;;;;;;;0.40;94.82;98720.37;1677432;84;21072;-85
2022/03/08 01:50:46;;;;;;;;;;;;;;;0.48;95.05;98726.63;1672499;84;25312;-84
2022/03/08 01:53:13;;;;;;;;;;;;;;;0.60;95.38;98720.33;1665255;84;20227;-84
2022/03/08 01:55:39;;;;;;;;;;;;;;;0.66;95.60;98724.01;1670230;84;24979;-84
2022/03/08 01:58:07;;;;;;;;;;;;;;;0.67;95.74;98733.44;1690420;82;20206;-84
2022/03/08 02:00:33;;;;;;;;;;;;;;;0.60;95.80;98734.49;1681514;84;25928;-85
2022/03/08 02:02:59;;;;;;;;;;;;;;;0.56;95.86;98734.14;1669349;84;24425;-84
2022/03/08 02:05:27;;;;;;;;;;;;;;;0.58;95.95;98729.81;1668373;84;20477;-83
2022/03/08 02:07:53;;;;;;;;;;;;;;;0.56;96.05;98730.28;1648937;84;24984;-83
2022/03/08 02:10:22;;;;;;;;;;;;;;;0.53;96.08;98729.08;1649830;84;21933;-83
2022/03/08 02:12:50;;;;;;;;;;;;;;;0.48;96.11;98727.06;1662505;84;26727;-83
2022/03/08 02:15:18;;;;;;;;;;;;;;;0.43;96.15;98728.91;1658959;84;25515;-83
2022/03/08 02:17:44;;;;;;;;;;;;;;;0.40;96.21;98730.67;1651807;84;20250;-83
2022/03/08 02:20:11;;;;;;;;;;;;;;;0.39;96.32;98732.83;1656816;86;24958;-83
2022/03/08 02:22:39;;;;;;;;;;;;;;;0.44;96.48;98729.32;1643209;85;21958;-83
2022/03/08 02:25:05;;;;;;;;;;;;;;;0.40;96.61;98721.66;1650821;85;26035;-83
2022/03/08 02:27:31;;;;;;;;;;;;;;;0.41;96.77;98723.35;1656528;84;24406;-83
2022/03/08 02:29:58;;;;;;;;;;;;;;;0.41;96.89;98719.93;1655704;86;20289;-83
2022/03/08 02:32:24;;;;;;;;;;;;;;;0.43;97.03;98714.31;1658701;86;25030;-83
2022/03/08 02:34:53;;;;;;;;;;;;;;;0.39;97.10;98712.23;1642788;86;22902;-83
2022/03/08 02:37:21;;;;;;;;;;;;;;;0.36;97.14;98701.19;1655183;85;26246;-83
2022/03/08 02:39:46;;;;;;;;;;;;;;;0.33;97.22;98699.52;1648777;85;25284;-83
2022/03/08 02:42:12;;;;;;;;;;;;;;;0.30;97.27;98702.17;1656762;85;20319;-83
2022/03/08 02:44:39;;;;;;;;;;;;;;;0.27;97.36;98703.52;1657851;85;24970;-83
2022/03/08 02:47:05;;;;;;;;;;;;;;;0.27;97.46;98708.67;1637546;86;21924;-83
2022/03/08 02:49:32;;;;;;;;;;;;;;;0.24;97.53;98710.05;1687590;84;26026;-83
2022/03/08 02:51:58;;;;;;;;;;;;;;;0.28;97.71;98706.95;1685741;84;24514;-85
2022/03/08 02:54:24;;;;;;;;;;;;;;;0.33;97.92;98711.09;1685837;83;20253;-85
2022/03/08 02:56:50;;;;;;;;;;;;;;;0.37;98.13;98712.73;1688258;83;24933;-84
2022/03/08 02:59:21;;;;;;;;;;;;;;;0.37;98.29;98708.88;1683995;84;22069;-84
2022/03/08 03:01:47;;;;;;;;;;;;;;;0.31;98.33;98714.17;1682849;83;26152;-83
2022/03/08 03:04:13;;;;;;;;;;;;;;;0.28;98.40;98707.80;1691000;84;20298;-83
2022/03/08 03:06:39;;;;;;;;;;;;;;;0.32;98.57;98708.14;1681964;84;20410;-84
2022/03/08 03:09:05;;;;;;;;;;;;;;;0.45;98.78;98714.25;1682879;83;24908;-84
2022/03/08 03:11:31;;;;;;;;;;;;;;;0.56;99.06;98714.39;1688636;84;22032;-85
2022/03/08 03:14:04;;;;;;;;;;;;;;;0.70;99.36;98712.33;1677894;84;26019;-84
2022/03/08 03:16:30;;;;;;;;;;;;;;;0.76;99.52;98711.33;1686855;83;24614;-84
2022/03/08 03:18:57;;;;;;;;;;;;;;;0.75;99.57;98710.48;1687544;84;20438;-84
2022/03/08 03:21:24;;;;;;;;;;;;;;;0.75;99.60;98708.34;1688560;83;25041;-83
2022/03/08 03:23:50;;;;;;;;;;;;;;;0.73;99.58;98709.66;1687553;84;21968;-82
2022/03/08 03:26:16;;;;;;;;;;;;;;;0.70;99.53;98712.33;1689302;83;25974;-83
2022/03/08 03:28:42;;;;;;;;;;;;;;;0.64;99.40;98707.77;1686640;84;24487;-83
2022/03/08 03:31:08;;;;;;;;;;;;;;;0.58;99.31;98710.06;1687265;84;20251;-83
2022/03/08 03:33:34;;;;;;;;;;;;;;;0.54;99.20;98714.89;1687046;84;24953;-82
2022/03/08 03:36:00;;;;;;;;;;;;;;;0.50;99.14;98723.55;1690809;83;21921;-83
2022/03/08 03:38:26;;;;;;;;;;;;;;;0.44;99.06;98726.75;1683423;83;25966;-83
2022/03/08 03:40:52;;;;;;;;;;;;;;;0.31;98.89;98718.03;1687656;84;24482;-83
2022/03/08 03:43:18;;;;;;;;;;;;;;;0.22;98.75;98723.84;1688989;83;20295;-83
2022/03/08 03:45:44;;;;;;;;;;;;;;;0.11;98.61;98723.25;1684230;83;24868;-83
2022/03/08 03:48:10;;;;;;;;;;;;;;;0.00;98.50;98732.51;1679574;84;22047;-84
2022/03/08 03:50:41;;;;;;;;;;;;;;;-0.06;98.47;98732.64;1672561;85;26081;-83
2022/03/08 03:53:07;;;;;;;;;;;;;;;-0.08;98.47;98724.95;1678793;85;24606;-83
2022/03/08 03:55:34;;;;;;;;;;;;;;;-0.10;98.52;98733.57;1680066;84;20758;-83
2022/03/08 03:58:00;;;;;;;;;;;;;;;-0.13;98.57;98734.50;1679061;85;24969;-83
2022/03/08 04:00:27;;;;;;;;;;;;;;;-0.22;98.57;98734.69;1701383;81;21830;-82
2022/03/08 04:02:56;;;;;;;;;;;;;;;-0.23;98.62;98732.17;1678031;85;26037;-84
2022/03/08 04:05:22;;;;;;;;;;;;;;;-0.23;98.72;98730.88;1670450;85;24528;-83
2022/03/08 04:07:48;;;;;;;;;;;;;;;-0.26;98.84;98731.78;1678790;83;20231;-84
2022/03/08 04:10:15;;;;;;;;;;;;;;;-0.29;98.91;98732.30;1675609;83;24935;-83
2022/03/08 04:12:42;;;;;;;;;;;;;;;-0.36;98.93;98734.15;1674880;85;22020;-83
2022/03/08 04:15:08;;;;;;;;;;;;;;;-0.43;98.96;98736.00;1676026;85;26067;-83
2022/03/08 04:17:35;;;;;;;;;;;;;;;-0.51;98.96;98735.33;1674351;84;24450;-83
2022/03/08 04:20:02;;;;;;;;;;;;;;;-0.55;98.98;98732.42;1674768;85;20185;-84
2022/03/08 04:22:29;;;;;;;;;;;;;;;-0.58;99.07;98739.33;1669361;84;25671;-84
2022/03/08 04:24:55;;;;;;;;;;;;;;;-0.62;99.17;98735.98;1678131;84;22123;-84
2022/03/08 04:27:21;;;;;;;;;;;;;;;-0.64;99.29;98737.73;1677655;85;21250;-84
2022/03/08 04:29:47;;;;;;;;;;;;;;;-0.65;99.40;98742.45;1674288;85;24412;-84
2022/03/08 04:32:13;;;;;;;;;;;;;;;-0.66;99.55;98742.07;1670092;85;20177;-84
2022/03/08 04:34:39;;;;;;;;;;;;;;;-0.68;99.65;98747.67;1679583;84;25013;-84
2022/03/08 04:37:05;;;;;;;;;;;;;;;-0.64;99.83;98743.30;1675824;85;20331;-84
2022/03/08 04:39:31;;;;;;;;;;;;;;;-0.61;100.00;98751.82;1683212;83;21116;-84
2022/03/08 04:41:58;;;;;;;;;;;;;;;-0.60;100.00;98750.92;1679752;85;24500;-85
2022/03/08 04:44:24;;;;;;;;;;;;;;;-0.53;100.00;98752.93;1672453;85;20206;-84
2022/03/08 04:46:50;;;;;;;;;;;;;;;-0.45;100.00;98751.06;1676351;83;25011;-84
2022/03/08 04:49:16;;;;;;;;;;;;;;;-0.38;100.00;98751.79;1673083;85;20229;-84
2022/03/08 04:51:43;;;;;;;;;;;;;;;-0.35;100.00;98749.98;1674262;84;26738;-84
2022/03/08 04:54:09;;;;;;;;;;;;;;;-0.36;100.00;98748.72;1671205;83;24418;-84
2022/03/08 04:56:36;;;;;;;;;;;;;;;-0.37;100.00;98750.45;1680604;85;20242;-84
2022/03/08 04:59:03;;;;;;;;;;;;;;;-0.37;100.00;98749.59;1672283;85;24993;-84
2022/03/08 05:01:29;;;;;;;;;;;;;;;-0.35;100.00;98747.85;1677632;84;22054;-85
2022/03/08 05:03:56;;;;;;;;;;;;;;;-0.32;100.00;98745.20;1677682;84;26053;-84
2022/03/08 05:06:22;;;;;;;;;;;;;;;-0.26;100.00;98751.50;1671236;83;24618;-84
2022/03/08 05:08:48;;;;;;;;;;;;;;;-0.24;100.00;98753.61;1677731;85;20239;-84
2022/03/08 05:11:15;;;;;;;;;;;;;;;-0.25;100.00;98755.34;1675953;84;24937;-84
2022/03/08 05:13:41;;;;;;;;;;;;;;;-0.20;100.00;98754.80;1672101;85;22074;-83
2022/03/08 05:16:07;;;;;;;;;;;;;;;-0.19;100.00;98759.50;1675488;85;26688;-84
2022/03/08 05:18:35;;;;;;;;;;;;;;;-0.19;100.00;98760.78;1676043;84;25237;-84
2022/03/08 05:21:01;;;;;;;;;;;;;;;-0.19;100.00;98765.93;1679503;83;20320;-85
2022/03/08 05:23:27;;;;;;;;;;;;;;;-0.16;100.00;98765.85;1675838;83;24956;-85
2022/03/08 05:25:53;;;;;;;;;;;;;;;-0.11;100.00;98775.63;1673452;85;21958;-85
2022/03/08 05:28:19;;;;;;;;;;;;;;;-0.10;100.00;98770.42;1676611;83;26013;-83
2022/03/08 05:30:45;;;;;;;;;;;;;;;-0.11;100.00;98782.88;1704582;82;20287;-84
2022/03/08 05:33:11;;;;;;;;;;;;;;;-0.15;100.00;98784.27;1676393;85;20257;-84
2022/03/08 05:35:37;;;;;;;;;;;;;;;-0.19;100.00;98788.64;1673214;84;24974;-84
2022/03/08 05:38:04;;;;;;;;;;;;;;;-0.20;100.00;98789.52;1672814;85;22051;-85
2022/03/08 05:40:30;;;;;;;;;;;;;;;-0.17;100.00;98789.91;1674131;85;26010;-84
2022/03/08 05:43:00;;;;;;;;;;;;;;;-0.11;100.00;98792.34;1679866;83;24487;-84
2022/03/08 05:45:28;;;;;;;;;;;;;;;-0.09;100.00;98798.28;1678623;82;20193;-85
2022/03/08 05:47:54;;;;;;;;;;;;;;;-0.03;100.00;98804.59;1677344;84;25027;-84
2022/03/08 05:50:20;;;;;;;;;;;;;;;0.00;100.00;98804.07;1674755;85;21965;-84
2022/03/08 05:52:47;;;;;;;;;;;;;;;0.05;100.00;98801.86;1675304;85;26049;-85
2022/03/08 05:55:13;;;;;;;;;;;;;;;0.08;100.00;98799.20;1677404;83;24517;-84
2022/03/08 05:57:39;;;;;;;;;;;;;;;0.17;100.00;98798.99;1677759;85;20280;-85
2022/03/08 06:00:06;;;;;;;;;;;;;;;0.14;100.00;98809.37;1706373;81;24929;-85
2022/03/08 06:02:32;;;;;;;;;;;;;;;0.21;100.00;98812.22;1674063;83;22032;-85
2022/03/08 06:04:58;;;;;;;;;;;;;;;0.16;100.00;98808.91;1678152;83;26195;-85
2022/03/08 06:07:24;;;;;;;;;;;;;;;0.12;100.00;98813.25;1677448;85;24634;-85
2022/03/08 06:09:50;;;;;;;;;;;;;;;0.14;100.00;98810.66;1670935;85;20195;-85
2022/03/08 06:12:16;;;;;;;;;;;;;;;0.18;100.00;98811.84;1704443;81;24850;-85
2022/03/08 06:14:43;;;;;;;;;;;;;;;0.12;100.00;98816.27;1676351;85;22144;-86
2022/03/08 06:17:09;;;;;;;;;;;;;;;0.12;100.00;98819.69;1675138;85;26766;-84
2022/03/08 06:19:36;;;;;;;;;;;;;;;0.17;100.00;98820.86;1675672;85;24524;-83
2022/03/08 06:22:02;;;;;;;;;;;;;;;0.23;100.00;98818.16;1673663;84;20288;-84
2022/03/08 06:24:28;;;;;;;;;;;;;;;0.20;100.00;98823.39;1675601;85;25195;-84
2022/03/08 06:26:54;;;;;;;;;;;;;;;0.30;100.00;98819.28;1705326;82;21882;-84
2022/03/08 06:29:20;;;;;;;;;;;;;;;0.49;100.00;98821.45;1675639;84;26050;-84
2022/03/08 06:31:46;;;;;;;;;;;;;;;0.48;100.00;98821.89;1672216;85;24384;-84
2022/03/08 06:34:12;;;;;;;;;;;;;;;0.47;100.00;98824.05;1678471;84;20301;-84
2022/03/08 06:36:39;;;;;;;;;;;;;;;0.43;100.00;98827.59;1671833;85;24932;-84
2022/03/08 06:39:05;;;;;;;;;;;;;;;0.35;100.00;98830.76;1676067;83;22055;-85
2022/03/08 06:41:35;;;;;;;;;;;;;;;0.37;100.00;98835.01;1680625;83;26924;-84
2022/03/08 06:44:01;;;;;;;;;;;;;;;0.42;100.00;98829.75;1675321;85;24500;-84
2022/03/08 06:46:27;;;;;;;;;;;;;;;0.47;100.00;98829.64;1679427;85;20273;-84
2022/03/08 06:48:54;;;;;;;;;;;;;;;0.52;100.00;98836.38;1679045;85;24965;-84
2022/03/08 06:51:21;;;;;;;;;;;;;;;0.53;100.00;98839.80;1678880;85;22066;-83
2022/03/08 06:53:47;;;;;;;;;;;;;;;0.49;100.00;98840.77;1676159;84;26278;-84
2022/03/08 06:56:13;;;;;;;;;;;;;;;0.57;100.00;98840.13;1675563;83;24645;-84
2022/03/08 06:58:39;;;;;;;;;;;;;;;0.59;100.00;98846.09;1677167;85;20333;-82
2022/03/08 07:01:05;;;;;;;;;;;;;;;0.54;100.00;98845.36;1673802;85;25156;-82
2022/03/08 07:03:34;;;;;;;;;;;;;;;0.53;100.00;98844.95;1678725;84;22138;-84
2022/03/08 07:06:00;;;;;;;;;;;;;;;0.57;100.00;98849.14;1682699;85;26546;-83
2022/03/08 07:08:26;;;;;;;;;;;;;;;0.61;100.00;98850.75;1675787;83;20342;-83
2022/03/08 07:10:52;;;;;;;;;;;;;;;0.68;100.00;98848.01;1679990;84;20154;-83
2022/03/08 07:13:18;;;;;;;;;;;;;;;0.78;100.00;98852.05;1674121;85;24975;-83
2022/03/08 07:15:45;;;;;;;;;;;;;;;0.84;100.00;98863.94;1675275;84;21944;-83
2022/03/08 07:18:12;;;;;;;;;;;;;;;0.86;100.00;98865.20;1675856;83;26740;-83
2022/03/08 07:20:40;;;;;;;;;;;;;;;0.91;100.00;98864.20;1675409;83;25085;-83
2022/03/08 07:23:08;;;;;;;;;;;;;;;0.97;100.00;98858.05;1675205;83;20188;-83
2022/03/08 07:25:34;;;;;;;;;;;;;;;0.94;100.00;98861.98;1674269;85;25038;-83
2022/03/08 07:28:00;;;;;;;;;;;;;;;0.91;100.00;98860.78;1675354;85;22087;-83
2022/03/08 07:30:26;;;;;;;;;;;;;;;0.84;100.00;98860.08;1708862;81;25828;-83
2022/03/08 07:32:52;;;;;;;;;;;;;;;0.84;100.00;98851.91;1676436;84;20280;-82
2022/03/08 07:35:18;;;;;;;;;;;;;;;0.94;100.00;98851.67;1700275;82;20249;-82
2022/03/08 07:37:44;;;;;;;;;;;;;;;0.94;100.00;98849.95;1678636;83;24963;-83
2022/03/08 07:40:11;;;;;;;;;;;;;;;0.89;100.00;98856.09;1677872;85;22170;-84
2022/03/08 07:42:37;;;;;;;;;;;;;;;0.83;100.00;98859.66;1676644;85;26062;-85
2022/03/08 07:45:04;;;;;;;;;;;;;;;0.73;100.00;98853.05;1704084;81;24430;-83
2022/03/08 07:47:30;;;;;;;;;;;;;;;0.64;100.00;98855.41;1674647;84;20213;-83
2022/03/08 07:50:03;;;;;;;;;;;;;;;0.69;100.00;98854.01;1704900;82;21129;-83
2022/03/08 07:52:29;;;;;;;;;;;;;;;0.87;100.00;98843.71;1688982;84;22106;-83
2022/03/08 07:54:55;;;;;;;;;;;;;;;1.10;100.00;98847.39;1686891;83;25982;-83
2022/03/08 07:57:21;;;;;;;;;;;;;;;1.27;100.00;98846.95;1685542;83;24508;-84
2022/03/08 07:59:47;;;;;;;;;;;;;;;1.40;100.00;98844.92;1686830;83;20664;-84
2022/03/08 08:02:13;;;;;;;;;;;;;;;1.43;100.00;98855.13;1688875;83;24972;-84
2022/03/08 08:04:39;;;;;;;;;;;;;;;1.51;100.00;98854.50;1683546;83;22042;-85
2022/03/08 08:07:05;;;;;;;;;;;;;;;1.51;100.00;98841.61;1684527;83;26055;-84
2022/03/08 08:09:32;;;;;;;;;;;;;;;1.49;100.00;98836.92;1684060;83;24393;-85
2022/03/08 08:11:59;;;;;;;;;;;;;;;1.47;100.00;98845.16;1687718;84;20464;-85
2022/03/08 08:14:26;;;;;;;;;;;;;;;1.50;100.00;98842.49;1685973;84;24988;-84
2022/03/08 08:16:52;;;;;;;;;;;;;;;1.49;100.00;98839.06;1688406;84;22072;-84
2022/03/08 08:19:18;;;;;;;;;;;;;;;1.54;100.00;98836.35;1682732;84;26243;-85
2022/03/08 08:21:46;;;;;;;;;;;;;;;1.49;100.00;98836.48;1683827;84;20272;-85
2022/03/08 08:24:12;;;;;;;;;;;;;;;1.49;100.00;98838.22;1685957;84;20229;-85
2022/03/08 08:26:38;;;;;;;;;;;;;;;1.50;100.00;98847.65;1690750;83;24950;-84
2022/03/08 08:29:04;;;;;;;;;;;;;;;1.47;100.00;98845.16;1690645;84;21940;-85
2022/03/08 08:31:33;;;;;;;;;;;;;;;1.49;100.00;98851.95;1689445;83;25993;-84
2022/03/08 08:34:00;;;;;;;;;;;;;;;1.53;100.00;98848.84;1683679;83;24457;-85
2022/03/08 08:36:26;;;;;;;;;;;;;;;1.50;100.00;98847.20;1688507;83;20342;-84
2022/03/08 08:38:52;;;;;;;;;;;;;;;1.43;100.00;98849.54;1688944;83;24853;-84
2022/03/08 08:41:18;;;;;;;;;;;;;;;1.30;100.00;98849.92;1685686;83;21925;-85
2022/03/08 08:43:44;;;;;;;;;;;;;;;1.30;100.00;98847.34;1685338;83;26059;-85
2022/03/08 08:46:11;;;;;;;;;;;;;;;1.33;100.00;98851.11;1683791;84;24190;-85
2022/03/08 08:48:37;;;;;;;;;;;;;;;1.35;100.00;98863.53;1679855;83;20222;-85
2022/03/08 08:51:04;;;;;;;;;;;;;;;1.34;100.00;98857.52;1678521;84;25029;-83
2022/03/08 08:53:35;;;;;;;;;;;;;;;1.37;100.00;98864.31;1676397;85;23053;-84
2022/03/08 08:56:02;;;;;;;;;;;;;;;1.31;100.00;98868.38;1678414;83;26058;-84
2022/03/08 08:58:28;;;;;;;;;;;;;;;1.31;100.00;98875.63;1668978;84;24463;-84
2022/03/08 09:00:54;;;;;;;;;;;;;;;1.32;100.00;98876.05;1676985;85;20194;-84
2022/03/08 09:03:23;;;;;;;;;;;;;;;1.33;100.00;98882.05;1675688;85;25017;-85
2022/03/08 09:05:49;;;;;;;;;;;;;;;1.31;100.00;98884.66;1676314;85;22080;-84
2022/03/08 09:08:22;;;;;;;;;;;;;;;1.29;100.00;98883.02;1699278;81;25926;-84
2022/03/08 09:10:44;;;;;;;;;;;;;;;1.36;100.00;98883.28;1681305;82;24365;-84
2022/03/08 09:13:10;;;;;;;;;;;;;;;1.37;100.00;98878.50;1680460;83;20217;-85
2022/03/08 09:15:37;;;;;;;;;;;;;;;1.40;100.00;98890.04;1676017;84;20240;-84
2022/03/08 09:18:05;;;;;;;;;;;;;;;1.44;100.00;98890.36;1675819;84;22065;-84
2022/03/08 09:20:31;;;;;;;;;;;;;;;1.31;100.00;98882.55;1675429;85;26146;-84
2022/03/08 09:22:57;;;;;;;;;;;;;;;1.36;100.00;98886.70;1673979;85;24421;-83
2022/03/08 09:25:24;;;;;;;;;;;;;;;1.46;100.00;98892.02;1676802;83;20467;-83
2022/03/08 09:27:50;;;;;;;;;;;;;;;1.51;100.00;98894.03;1678848;84;25038;-83
2022/03/08 09:30:16;;;;;;;;;;;;;;;1.55;100.00;98897.37;1673253;84;21957;-83
2022/03/08 09:32:42;;;;;;;;;;;;;;;1.49;100.00;98891.93;1671203;85;26008;-84
2022/03/08 09:35:08;;;;;;;;;;;;;;;1.51;100.00;98896.61;1678751;84;24401;-84
2022/03/08 09:37:34;;;;;;;;;;;;;;;1.63;100.00;98894.16;1681909;85;20296;-84
2022/03/08 09:40:04;;;;;;;;;;;;;;;1.65;100.00;98898.38;1674653;84;25613;-84
2022/03/08 09:42:31;;;;;;;;;;;;;;;1.66;100.00;98904.38;1673521;85;21956;-84
2022/03/08 09:44:57;;;;;;;;;;;;;;;1.67;100.00;98904.79;1676449;85;26149;-84
2022/03/08 09:47:23;;;;;;;;;;;;;;;1.65;100.00;98914.30;1673316;85;24453;-84
2022/03/08 09:49:50;;;;;;;;;;;;;;;1.59;100.00;98915.30;1668948;84;20206;-84
2022/03/08 09:52:18;;;;;;;;;;;;;;;1.59;100.00;98910.58;1673367;84;24989;-84
2022/03/08 09:54:44;;;;;;;;;;;;;;;1.62;100.00;98912.66;1671226;85;22236;-84
2022/03/08 09:57:11;;;;;;;;;;;;;;;1.65;100.00;98916.43;1677314;85;26054;-84
2022/03/08 09:59:37;;;;;;;;;;;;;;;1.74;100.00;98915.36;1667845;85;24498;-84
2022/03/08 10:02:03;;;;;;;;;;;;;;;1.78;100.00;98912.24;1671636;85;20255;-83
2022/03/08 10:04:29;;;;;;;;;;;;;;;1.84;100.00;98912.93;1671453;85;24963;-83
2022/03/08 10:06:56;;;;;;;;;;;;;;;1.94;100.00;98920.81;1675589;85;22039;-83
2022/03/08 10:09:23;;;;;;;;;;;;;;;1.97;100.00;98918.14;1670274;84;26049;-83
2022/03/08 10:11:51;;;;;;;;;;;;;;;1.95;100.00;98914.77;1666437;84;24526;-83
2022/03/08 10:14:43;;;;;;;;;;;;;;;1.97;100.00;98919.43;1677393;85;20212;-83
2022/03/08 10:17:01;;;;;;;;;;;;;;;1.97;100.00;98919.87;1676382;85;25182;-83
2022/03/08 10:19:36;;;;;;;;;;;;;;;2.06;100.00;98917.91;1668189;85;22055;-83
2022/03/08 10:22:13;;;;;;;;;;;;;;;2.18;100.00;98922.32;1673565;85;26065;-83
2022/03/08 10:24:44;;;;;;;;;;;;;;;2.21;100.00;98923.52;1670888;85;24659;-83
2022/03/08 10:27:10;;;;;;;;;;;;;;;2.20;100.00;98930.41;1681848;84;20232;-83
2022/03/08 10:29:37;;;;;;;;;;;;;;;2.30;100.00;98922.80;1672644;85;25059;-83
2022/03/08 10:32:05;;;;;;;;;;;;;;;2.44;100.00;98918.53;1668462;85;22002;-84
2022/03/08 10:34:31;;;;;;;;;;;;;;;2.58;100.00;98908.63;1675477;85;25983;-83
2022/03/08 10:37:02;;;;;;;;;;;;;;;2.73;100.00;98910.73;1670246;84;24589;-83
2022/03/08 10:39:28;;;;;;;;;;;;;;;2.83;100.00;98913.46;1673252;85;20568;-83
2022/03/08 10:41:56;;;;;;;;;;;;;;;2.78;100.00;98912.73;1671810;85;25037;-83
2022/03/08 10:44:33;;;;;;;;;;;;;;;2.83;100.00;98917.78;1670614;85;22064;-83
2022/03/08 10:47:10;;;;;;;;;;;;;;;2.85;100.00;98921.99;1674161;85;26198;-83
2022/03/08 10:49:38;;;;;;;;;;;;;;;2.82;100.00;98912.20;1673271;85;25295;-83
2022/03/08 10:52:05;;;;;;;;;;;;;;;2.81;100.00;98915.23;1674007;83;20378;-83
2022/03/08 10:54:32;;;;;;;;;;;;;;;2.80;100.00;98910.95;1667970;85;25043;-83
2022/03/08 10:56:58;;;;;;;;;;;;;;;2.77;100.00;98908.48;1668115;85;22085;-83
2022/03/08 10:59:24;;;;;;;;;;;;;;;2.76;100.00;98906.78;1665647;85;26036;-83
2022/03/08 11:01:51;;;;;;;;;;;;;;;2.79;100.00;98904.53;1670028;85;24503;-83
2022/03/08 11:04:18;;;;;;;;;;;;;;;2.81;100.00;98898.44;1670493;85;20493;-84
2022/03/08 11:06:52;;;;;;;;;;;;;;;2.88;100.00;98901.23;1670484;85;25817;-84
2022/03/08 11:09:19;;;;;;;;;;;;;;;2.97;100.00;98901.38;1673122;85;22733;-84
2022/03/08 11:11:45;;;;;;;;;;;;;;;3.05;100.00;98896.83;1669927;85;26178;-84
2022/03/08 11:14:11;;;;;;;;;;;;;;;3.18;100.00;98883.03;1670704;84;24509;-83
2022/03/08 11:16:38;;;;;;;;;;;;;;;3.24;100.00;98883.67;1670338;84;20758;-84
2022/03/08 11:19:05;;;;;;;;;;;;;;;3.22;100.00;98884.61;1672118;85;25174;-83
2022/03/08 11:21:35;;;;;;;;;;;;;;;3.21;100.00;98882.50;1673580;85;22073;-84
2022/03/08 11:24:02;;;;;;;;;;;;;;;3.17;100.00;98878.30;1668729;85;26798;-83
2022/03/08 11:26:28;;;;;;;;;;;;;;;3.25;100.00;98875.03;1670554;85;24433;-83
2022/03/08 11:28:55;;;;;;;;;;;;;;;3.26;100.00;98868.13;1671623;85;20510;-84
2022/03/08 11:31:23;;;;;;;;;;;;;;;3.30;100.00;98864.08;1668775;85;24988;-84
2022/03/08 11:33:58;;;;;;;;;;;;;;;3.29;100.00;98864.97;1668626;83;22082;-83
2022/03/08 11:36:28;;;;;;;;;;;;;;;3.36;100.00;98865.61;1695903;83;23982;-83
2022/03/08 11:41:43;;;;;;;;;;;;;;;3.38;100.00;98861.69;1672759;84;20252;-83
2022/03/08 11:44:22;;;;;;;;;;;;;;;3.38;100.00;98861.69;1676932;84;25025;-83
2022/03/08 11:47:02;;;;;;;;;;;;;;;3.30;100.00;98860.20;1673589;85;21993;-83
2022/03/08 11:49:33;;;;;;;;;;;;;;;3.19;100.00;98865.33;1666798;85;26751;-83
2022/03/08 11:52:10;;;;;;;;;;;;;;;3.13;100.00;98866.37;1654546;85;25412;-83
2022/03/08 11:54:44;;;;;;;;;;;;;;;3.15;100.00;98860.72;1660751;85;20193;-83
2022/03/08 11:57:18;;;;;;;;;;;;;;;3.13;100.00;98855.19;1661029;84;25095;-83
2022/03/08 11:59:46;;;;;;;;;;;;;;;3.22;100.00;98849.25;1675091;83;22041;-83
2022/03/08 12:02:13;;;;;;;;;;;;;;;3.24;100.00;98845.33;1681485;82;25994;-83
2022/03/08 12:04:45;;;;;;;;;;;;;;;3.16;99.69;98839.14;1671809;84;24548;-83
2022/03/08 12:07:13;;;;;;;;;;;;;;;3.12;99.15;98844.00;1677354;84;20606;-84
2022/03/08 12:09:42;;;;;;;;;;;;;;;3.17;98.81;98836.08;1675050;84;25624;-83
2022/03/08 12:12:08;;;;;;;;;;;;;;;3.10;98.33;98836.76;1673405;83;21511;-83
2022/03/08 12:14:38;;;;;;;;;;;;;;;3.20;98.11;98829.08;1672861;84;25943;-83
2022/03/08 12:17:12;;;;;;;;;;;;;;;3.27;97.92;98827.14;1678337;83;25210;-83
2022/03/08 12:19:46;;;;;;;;;;;;;;;3.35;97.75;98825.97;1682531;83;20205;-84
2022/03/08 12:22:17;;;;;;;;;;;;;;;3.50;97.64;98829.75;1672813;84;24464;-83
2022/03/08 12:24:48;;;;;;;;;;;;;;;3.60;97.55;98826.41;1672518;84;22588;-83
2022/03/08 12:27:14;;;;;;;;;;;;;;;3.69;97.46;98833.39;1680754;84;26129;-83
2022/03/08 12:29:48;;;;;;;;;;;;;;;3.71;97.18;98829.44;1671429;83;24123;-83
2022/03/08 12:32:25;;;;;;;;;;;;;;;3.74;96.85;98827.59;1636878;86;20251;-83
2022/03/08 12:34:53;;;;;;;;;;;;;;;3.82;96.54;98830.38;1659830;85;25385;-83
2022/03/08 12:37:30;;;;;;;;;;;;;;;3.88;96.22;98822.35;1660572;85;22055;-83
2022/03/08 12:40:01;;;;;;;;;;;;;;;3.94;95.97;98812.63;1658060;86;26766;-83
2022/03/08 12:42:36;;;;;;;;;;;;;;;4.02;95.70;98810.61;1660370;85;25027;-83
2022/03/08 12:45:04;;;;;;;;;;;;;;;4.03;95.29;98810.16;1658792;85;20449;-84
2022/03/08 12:47:35;;;;;;;;;;;;;;;3.94;94.65;98810.48;1682123;84;24985;-84
2022/03/08 12:50:02;;;;;;;;;;;;;;;3.73;93.87;98810.38;1679264;82;21976;-84
2022/03/08 12:52:32;;;;;;;;;;;;;;;3.76;93.39;98815.42;1666381;84;27153;-84